Time,TemperatureF,DewpointF,PressureIn,WindDirection,WindDirectionDegrees,WindSpeedMPH,WindSpeedGustMPH,Humidity,HourlyPrecipIn,Conditions,Clouds,dailyrainin,SoftwareType,DateUTC
2013-05-09 00:00:00,59.1,55.2,30.08,SSE,163,1.0,2.0,87,0.00,,,0.22,Wunderground v.1.15,2013-05-09 04:00:00,
2013-05-09 00:05:00,59.1,55.2,30.08,SSE,163,1.0,2.0,87,0.00,,,0.00,Wunderground v.1.15,2013-05-09 04:05:00,
2013-05-09 00:10:00,59.1,55.2,30.08,South,180,3.0,4.0,87,0.00,,,0.00,Wunderground v.1.15,2013-05-09 04:10:00,
2013-05-09 00:15:00,59.0,55.1,30.08,SSE,157,1.0,4.0,87,0.00,,,0.00,Wunderground v.1.15,2013-05-09 04:15:00,
2013-05-09 00:20:00,59.0,55.1,30.08,SE,139,0.0,4.0,87,0.00,,,0.00,Wunderground v.1.15,2013-05-09 04:20:00,
2013-05-09 00:26:00,59.0,55.1,30.08,SE,139,0.0,1.0,87,0.00,,,0.00,Wunderground v.1.15,2013-05-09 04:26:00,
2013-05-09 00:31:00,59.0,55.1,30.08,SE,146,2.0,2.0,87,0.00,,,0.00,Wunderground v.1.15,2013-05-09 04:31:00,
2013-05-09 00:36:00,58.9,55.0,30.08,SE,146,0.0,2.0,87,0.00,,,0.00,Wunderground v.1.15,2013-05-09 04:36:00,
2013-05-09 00:42:00,59.0,55.1,30.08,SE,146,0.0,1.0,87,0.00,,,0.00,Wunderground v.1.15,2013-05-09 04:42:00,
2013-05-09 00:47:00,58.9,55.0,30.08,SSE,147,1.0,2.0,87,0.00,,,0.00,Wunderground v.1.15,2013-05-09 04:47:00,
2013-05-09 00:52:00,59.0,55.1,30.08,SSE,147,1.0,1.0,87,0.00,,,0.00,Wunderground v.1.15,2013-05-09 04:52:00,
2013-05-09 00:57:00,58.9,55.0,30.07,SSE,147,0.0,1.0,87,0.00,,,0.00,Wunderground v.1.15,2013-05-09 04:57:00,
2013-05-09 01:02:00,59.0,55.1,30.07,SSE,147,0.0,1.0,87,0.00,,,0.00,Wunderground v.1.15,2013-05-09 05:02:00,
2013-05-09 01:07:00,59.0,55.1,30.07,SSE,147,0.0,1.0,87,0.00,,,0.00,Wunderground v.1.15,2013-05-09 05:07:00,
2013-05-09 01:13:00,59.0,55.1,30.07,SSE,147,0.0,0.0,87,0.00,,,0.00,Wunderground v.1.15,2013-05-09 05:13:00,
2013-05-09 01:18:00,59.0,55.1,30.06,SSE,147,0.0,1.0,87,0.00,,,0.00,Wunderground v.1.15,2013-05-09 05:18:00,
2013-05-09 01:23:00,58.9,55.0,30.07,SSE,147,0.0,0.0,87,0.00,,,0.00,Wunderground v.1.15,2013-05-09 05:23:00,
2013-05-09 01:28:00,58.9,55.0,30.06,SSE,147,0.0,1.0,87,0.00,,,0.00,Wunderground v.1.15,2013-05-09 05:28:00,
2013-05-09 01:33:00,58.9,55.0,30.06,SSE,147,0.0,1.0,87,0.00,,,0.00,Wunderground v.1.15,2013-05-09 05:33:00,
2013-05-09 01:38:00,58.7,54.8,30.06,SSE,147,0.0,2.0,87,0.00,,,0.00,Wunderground v.1.15,2013-05-09 05:38:00,
2013-05-09 01:44:00,58.6,54.7,30.06,SSE,147,0.0,1.0,87,0.00,,,0.00,Wunderground v.1.15,2013-05-09 05:44:00,
2013-05-09 01:49:00,58.6,54.7,30.06,SSE,147,0.0,1.0,87,0.00,,,0.00,Wunderground v.1.15,2013-05-09 05:49:00,
2013-05-09 01:54:00,58.7,54.8,30.05,SSE,147,0.0,0.0,87,0.00,,,0.00,Wunderground v.1.15,2013-05-09 05:54:00,
2013-05-09 01:59:00,58.7,54.8,30.05,SSE,147,0.0,2.0,87,0.00,,,0.00,Wunderground v.1.15,2013-05-09 05:59:00,
2013-05-09 02:04:00,58.7,54.8,30.05,SSE,147,0.0,1.0,87,0.00,,,0.00,Wunderground v.1.15,2013-05-09 06:04:00,
2013-05-09 02:10:00,58.7,54.8,30.05,SSE,147,0.0,1.0,87,0.00,,,0.00,Wunderground v.1.15,2013-05-09 06:10:00,
2013-05-09 02:15:00,58.7,54.8,30.05,SSE,147,1.0,1.0,87,0.00,,,0.00,Wunderground v.1.15,2013-05-09 06:15:00,
2013-05-09 02:20:00,58.6,54.7,30.04,SSE,147,0.0,2.0,87,0.00,,,0.00,Wunderground v.1.15,2013-05-09 06:20:00,
2013-05-09 02:25:00,58.6,54.7,30.04,SSE,147,0.0,1.0,87,0.00,,,0.00,Wunderground v.1.15,2013-05-09 06:25:00,
2013-05-09 02:30:00,58.5,54.6,30.05,SSE,147,0.0,2.0,87,0.00,,,0.00,Wunderground v.1.15,2013-05-09 06:30:00,
2013-05-09 02:35:00,58.5,54.6,30.04,SSE,147,0.0,1.0,87,0.00,,,0.00,Wunderground v.1.15,2013-05-09 06:35:00,
2013-05-09 02:40:00,58.5,54.6,30.04,SSE,147,0.0,1.0,87,0.00,,,0.00,Wunderground v.1.15,2013-05-09 06:40:00,
2013-05-09 02:45:00,58.4,54.5,30.04,SSE,147,0.0,0.0,87,0.00,,,0.00,Wunderground v.1.15,2013-05-09 06:45:00,
2013-05-09 02:50:00,58.4,54.5,30.04,SSE,147,0.0,0.0,87,0.00,,,0.00,Wunderground v.1.15,2013-05-09 06:50:00,
2013-05-09 02:55:00,58.3,54.8,30.04,SSE,147,0.0,2.0,88,0.00,,,0.00,Wunderground v.1.15,2013-05-09 06:55:00,
2013-05-09 03:00:00,58.2,54.7,30.04,SSE,147,0.0,2.0,88,0.00,,,0.00,Wunderground v.1.15,2013-05-09 07:00:00,
2013-05-09 03:05:00,58.1,54.2,30.04,SSE,147,0.0,1.0,87,0.00,,,0.00,Wunderground v.1.15,2013-05-09 07:05:00,
2013-05-09 03:10:00,58.0,54.2,30.04,SSE,147,0.0,1.0,87,0.00,,,0.00,Wunderground v.1.15,2013-05-09 07:10:00,
2013-05-09 03:15:00,57.9,54.4,30.04,SSE,147,0.0,1.0,88,0.00,,,0.00,Wunderground v.1.15,2013-05-09 07:15:00,
2013-05-09 03:20:00,57.8,54.3,30.04,SSE,147,0.0,1.0,88,0.00,,,0.00,Wunderground v.1.15,2013-05-09 07:20:00,
2013-05-09 03:25:00,57.7,54.2,30.04,SSE,147,0.0,2.0,88,0.00,,,0.00,Wunderground v.1.15,2013-05-09 07:25:00,
2013-05-09 03:30:00,57.6,54.1,30.04,SSE,147,0.0,2.0,88,0.00,,,0.00,Wunderground v.1.15,2013-05-09 07:30:00,
2013-05-09 03:35:00,57.6,54.1,30.04,SSE,147,0.0,1.0,88,0.00,,,0.00,Wunderground v.1.15,2013-05-09 07:35:00,
2013-05-09 03:40:00,57.5,53.7,30.04,SSE,147,1.0,3.0,87,0.00,,,0.00,Wunderground v.1.15,2013-05-09 07:40:00,
2013-05-09 03:45:00,57.5,53.7,30.03,SSE,147,0.0,1.0,87,0.00,,,0.00,Wunderground v.1.15,2013-05-09 07:45:00,
2013-05-09 03:50:00,57.5,53.7,30.03,SSE,147,0.0,1.0,87,0.00,,,0.00,Wunderground v.1.15,2013-05-09 07:50:00,
2013-05-09 03:55:00,57.5,53.7,30.02,SSE,147,0.0,1.0,87,0.00,,,0.00,Wunderground v.1.15,2013-05-09 07:55:00,
2013-05-09 04:00:00,57.4,53.6,30.02,SSE,147,0.0,1.0,87,0.00,,,0.00,Wunderground v.1.15,2013-05-09 08:00:00,
2013-05-09 04:05:00,57.3,53.5,30.01,SSE,147,0.0,1.0,87,0.00,,,0.00,Wunderground v.1.15,2013-05-09 08:05:00,
2013-05-09 04:10:00,57.2,53.4,30.02,SSE,147,0.0,1.0,87,0.00,,,0.00,Wunderground v.1.15,2013-05-09 08:10:00,
2013-05-09 04:15:00,57.1,53.6,30.02,SSE,147,0.0,0.0,88,0.00,,,0.00,Wunderground v.1.15,2013-05-09 08:15:00,
2013-05-09 04:20:00,56.9,53.4,30.02,SSE,147,0.0,0.0,88,0.00,,,0.00,Wunderground v.1.15,2013-05-09 08:20:00,
2013-05-09 04:25:00,56.7,53.2,30.02,SSE,147,0.0,0.0,88,0.00,,,0.00,Wunderground v.1.15,2013-05-09 08:25:00,
2013-05-09 04:30:00,56.4,52.9,30.02,SSE,147,1.0,1.0,88,0.00,,,0.00,Wunderground v.1.15,2013-05-09 08:30:00,
2013-05-09 04:35:00,56.2,52.7,30.02,SSE,147,0.0,2.0,88,0.00,,,0.00,Wunderground v.1.15,2013-05-09 08:35:00,
2013-05-09 04:40:00,56.2,52.7,30.02,SSE,147,0.0,0.0,88,0.00,,,0.00,Wunderground v.1.15,2013-05-09 08:40:00,
2013-05-09 04:45:00,56.1,52.6,30.02,SSE,147,0.0,0.0,88,0.00,,,0.00,Wunderground v.1.15,2013-05-09 08:45:00,
2013-05-09 04:51:00,55.9,52.4,30.02,SSE,147,0.0,0.0,88,0.00,,,0.00,Wunderground v.1.15,2013-05-09 08:51:00,
2013-05-09 04:56:00,55.9,52.4,30.02,SSE,147,0.0,1.0,88,0.00,,,0.00,Wunderground v.1.15,2013-05-09 08:56:00,
2013-05-09 05:01:00,55.9,52.4,30.02,SSE,147,0.0,0.0,88,0.00,,,0.00,Wunderground v.1.15,2013-05-09 09:01:00,
2013-05-09 05:06:00,55.9,52.4,30.02,SSE,147,0.0,0.0,88,0.00,,,0.00,Wunderground v.1.15,2013-05-09 09:06:00,
2013-05-09 05:11:00,55.9,52.4,30.02,SSE,147,0.0,0.0,88,0.00,,,0.00,Wunderground v.1.15,2013-05-09 09:11:00,
2013-05-09 05:16:00,55.9,52.4,30.02,SSE,147,0.0,0.0,88,0.00,,,0.00,Wunderground v.1.15,2013-05-09 09:16:00,
2013-05-09 05:21:00,55.9,52.1,30.02,SSE,147,0.0,0.0,87,0.00,,,0.00,Wunderground v.1.15,2013-05-09 09:21:00,
2013-05-09 05:26:00,55.9,52.1,30.02,SSE,147,1.0,1.0,87,0.00,,,0.00,Wunderground v.1.15,2013-05-09 09:26:00,
2013-05-09 05:31:00,55.9,52.1,30.02,SSE,147,0.0,0.0,87,0.00,,,0.00,Wunderground v.1.15,2013-05-09 09:31:00,
2013-05-09 05:36:00,55.8,52.3,30.02,SSE,147,0.0,1.0,88,0.00,,,0.00,Wunderground v.1.15,2013-05-09 09:36:00,
2013-05-09 05:41:00,55.7,52.2,30.01,SSE,147,0.0,0.0,88,0.00,,,0.00,Wunderground v.1.15,2013-05-09 09:41:00,
2013-05-09 05:46:00,55.7,52.2,30.02,SSE,147,0.0,1.0,88,0.00,,,0.00,Wunderground v.1.15,2013-05-09 09:46:00,
2013-05-09 05:51:00,55.7,52.2,30.02,SSE,147,0.0,0.0,88,0.00,,,0.00,Wunderground v.1.15,2013-05-09 09:51:00,
2013-05-09 05:56:00,55.7,52.2,30.02,SSE,147,0.0,1.0,88,0.00,,,0.00,Wunderground v.1.15,2013-05-09 09:56:00,
2013-05-09 06:01:00,55.7,52.2,30.02,SSE,147,0.0,0.0,88,0.00,,,0.00,Wunderground v.1.15,2013-05-09 10:01:00,
2013-05-09 06:07:00,55.8,52.0,30.01,SSE,147,0.0,1.0,87,0.00,,,0.00,Wunderground v.1.15,2013-05-09 10:07:00,
2013-05-09 06:12:00,55.9,52.1,30.01,SSE,147,0.0,0.0,87,0.00,,,0.00,Wunderground v.1.15,2013-05-09 10:12:00,
2013-05-09 06:17:00,55.9,52.1,30.02,SSE,147,0.0,1.0,87,0.00,,,0.00,Wunderground v.1.15,2013-05-09 10:17:00,
2013-05-09 06:22:00,55.9,52.1,30.02,SSE,147,0.0,0.0,87,0.00,,,0.00,Wunderground v.1.15,2013-05-09 10:22:00,
2013-05-09 06:27:00,56.1,52.3,30.02,SSE,147,0.0,0.0,87,0.00,,,0.00,Wunderground v.1.15,2013-05-09 10:27:00,
2013-05-09 06:32:00,56.0,52.2,30.02,SSE,147,0.0,1.0,87,0.00,,,0.00,Wunderground v.1.15,2013-05-09 10:32:00,
2013-05-09 06:37:00,56.0,52.2,30.02,SSE,147,0.0,1.0,87,0.00,,,0.00,Wunderground v.1.15,2013-05-09 10:37:00,
2013-05-09 06:42:00,56.1,52.6,30.02,SSE,147,0.0,0.0,88,0.00,,,0.00,Wunderground v.1.15,2013-05-09 10:42:00,
2013-05-09 06:47:00,56.1,52.3,30.02,SSE,147,0.0,0.0,87,0.00,,,0.00,Wunderground v.1.15,2013-05-09 10:47:00,
2013-05-09 06:52:00,56.1,52.3,30.03,SSE,147,0.0,0.0,87,0.00,,,0.00,Wunderground v.1.15,2013-05-09 10:52:00,
2013-05-09 06:57:00,56.2,52.4,30.03,SSE,147,1.0,2.0,87,0.00,,,0.00,Wunderground v.1.15,2013-05-09 10:57:00,
2013-05-09 07:02:00,55.9,52.1,30.03,SSE,147,3.0,3.0,87,0.00,,,0.00,Wunderground v.1.15,2013-05-09 11:02:00,
2013-05-09 07:07:00,56.0,52.2,30.03,SSE,147,0.0,3.0,87,0.00,,,0.00,Wunderground v.1.15,2013-05-09 11:07:00,
2013-05-09 07:12:00,56.0,52.2,30.03,SSE,147,0.0,1.0,87,0.00,,,0.00,Wunderground v.1.15,2013-05-09 11:12:00,
2013-05-09 07:17:00,56.1,52.3,30.03,SSE,147,0.0,2.0,87,0.00,,,0.00,Wunderground v.1.15,2013-05-09 11:17:00,
2013-05-09 07:22:00,56.1,52.3,30.03,SSE,147,0.0,1.0,87,0.00,,,0.00,Wunderground v.1.15,2013-05-09 11:22:00,
2013-05-09 07:27:00,56.2,52.4,30.03,SSE,147,0.0,1.0,87,0.00,,,0.00,Wunderground v.1.15,2013-05-09 11:27:00,
2013-05-09 07:32:00,56.3,52.8,30.03,SSE,147,0.0,1.0,88,0.00,,,0.00,Wunderground v.1.15,2013-05-09 11:32:00,
2013-05-09 07:37:00,58.6,55.1,30.03,SSE,147,0.0,1.0,88,0.00,,,0.00,Wunderground v.1.15,2013-05-09 11:37:00,
2013-05-09 07:42:00,57.2,53.4,30.03,SSE,147,0.0,0.0,87,0.00,,,0.00,Wunderground v.1.15,2013-05-09 11:42:00,
2013-05-09 07:47:00,64.7,61.1,30.03,SSE,147,0.0,1.0,88,0.00,,,0.00,Wunderground v.1.15,2013-05-09 11:47:00,
2013-05-09 07:52:00,64.3,60.3,30.03,SSE,147,0.0,2.0,87,0.00,,,0.00,Wunderground v.1.15,2013-05-09 11:52:00,
2013-05-09 07:57:00,59.9,56.0,30.03,SSE,147,0.0,2.0,87,0.00,,,0.00,Wunderground v.1.15,2013-05-09 11:57:00,
2013-05-09 08:02:00,58.5,54.6,30.03,SSE,147,0.0,0.0,87,0.00,,,0.00,Wunderground v.1.15,2013-05-09 12:02:00,
2013-05-09 08:07:00,57.5,53.7,30.03,SSE,147,0.0,1.0,87,0.00,,,0.00,Wunderground v.1.15,2013-05-09 12:07:00,
2013-05-09 08:12:00,57.1,53.3,30.03,SSE,147,0.0,1.0,87,0.00,,,0.00,Wunderground v.1.15,2013-05-09 12:12:00,
2013-05-09 08:17:00,56.9,53.1,30.03,SSE,147,0.0,2.0,87,0.00,,,0.00,Wunderground v.1.15,2013-05-09 12:17:00,
2013-05-09 08:22:00,56.9,53.1,30.03,SSE,147,0.0,0.0,87,0.00,,,0.00,Wunderground v.1.15,2013-05-09 12:22:00,
2013-05-09 08:27:00,57.1,53.3,30.03,SSE,147,0.0,1.0,87,0.00,,,0.00,Wunderground v.1.15,2013-05-09 12:27:00,
2013-05-09 08:32:00,57.1,53.3,30.03,SSE,147,0.0,0.0,87,0.00,,,0.00,Wunderground v.1.15,2013-05-09 12:32:00,
2013-05-09 08:37:00,57.1,53.3,30.04,SSE,147,1.0,1.0,87,0.00,,,0.00,Wunderground v.1.15,2013-05-09 12:37:00,
2013-05-09 08:42:00,57.4,53.6,30.03,SSE,147,0.0,0.0,87,0.00,,,0.00,Wunderground v.1.15,2013-05-09 12:42:00,
2013-05-09 08:47:00,57.4,53.6,30.03,SSE,147,0.0,1.0,87,0.00,,,0.00,Wunderground v.1.15,2013-05-09 12:47:00,
2013-05-09 08:52:00,57.6,53.8,30.03,SSE,147,0.0,1.0,87,0.00,,,0.01,Wunderground v.1.15,2013-05-09 12:52:00,
2013-05-09 08:57:00,57.8,54.0,30.03,SSE,147,0.0,1.0,87,0.00,,,0.01,Wunderground v.1.15,2013-05-09 12:57:00,
2013-05-09 09:02:00,57.9,54.1,30.03,SSE,147,0.0,0.0,87,0.00,,,0.01,Wunderground v.1.15,2013-05-09 13:02:00,
2013-05-09 09:07:00,57.6,53.8,30.02,SE,144,0.0,2.0,87,0.00,,,0.01,Wunderground v.1.15,2013-05-09 13:07:00,
2013-05-09 09:12:00,57.9,54.1,30.02,SE,144,1.0,1.0,87,0.00,,,0.01,Wunderground v.1.15,2013-05-09 13:12:00,
2013-05-09 09:17:00,58.6,54.7,30.02,SE,144,0.0,1.0,87,0.00,,,0.01,Wunderground v.1.15,2013-05-09 13:17:00,
2013-05-09 09:22:00,58.9,55.0,30.02,SE,144,0.0,1.0,87,0.00,,,0.01,Wunderground v.1.15,2013-05-09 13:22:00,
2013-05-09 09:27:00,58.9,55.0,30.02,SE,144,0.0,2.0,87,0.00,,,0.01,Wunderground v.1.15,2013-05-09 13:27:00,
2013-05-09 09:32:00,58.5,54.6,30.02,SE,144,0.0,2.0,87,0.00,,,0.01,Wunderground v.1.15,2013-05-09 13:32:00,
2013-05-09 09:37:00,58.7,54.8,30.02,SE,144,0.0,2.0,87,0.00,,,0.01,Wunderground v.1.15,2013-05-09 13:37:00,
2013-05-09 09:42:00,59.0,55.1,30.01,SE,144,0.0,0.0,87,0.00,,,0.01,Wunderground v.1.15,2013-05-09 13:42:00,
2013-05-09 09:47:00,59.8,55.9,30.01,SE,144,1.0,4.0,87,0.00,,,0.01,Wunderground v.1.15,2013-05-09 13:47:00,
2013-05-09 09:52:00,59.8,56.2,30.01,East,92,0.0,5.0,88,0.00,,,0.01,Wunderground v.1.15,2013-05-09 13:52:00,
2013-05-09 09:57:00,60.0,56.4,30.01,NNW,348,0.0,5.0,88,0.00,,,0.01,Wunderground v.1.15,2013-05-09 13:57:00,
2013-05-09 10:02:00,60.1,56.8,30.01,NE,55,1.0,2.0,89,0.00,,,0.01,Wunderground v.1.15,2013-05-09 14:02:00,
2013-05-09 10:07:00,60.4,56.8,30.01,NE,53,1.0,2.0,88,0.00,,,0.01,Wunderground v.1.15,2013-05-09 14:07:00,
2013-05-09 10:12:00,60.3,56.4,30.01,NE,54,0.0,1.0,87,0.00,,,0.01,Wunderground v.1.15,2013-05-09 14:12:00,
2013-05-09 10:17:00,60.6,56.7,30.01,NE,53,0.0,2.0,87,0.00,,,0.01,Wunderground v.1.15,2013-05-09 14:17:00,
2013-05-09 10:22:00,60.7,56.8,30.01,NE,53,0.0,1.0,87,0.00,,,0.01,Wunderground v.1.15,2013-05-09 14:22:00,
2013-05-09 10:27:00,60.9,57.0,30.01,NE,53,0.0,1.0,87,0.00,,,0.01,Wunderground v.1.15,2013-05-09 14:27:00,
2013-05-09 10:32:00,61.2,57.3,30.01,NE,53,0.0,0.0,87,0.00,,,0.01,Wunderground v.1.15,2013-05-09 14:32:00,
2013-05-09 10:37:00,61.3,57.4,30.02,NE,54,0.0,0.0,87,0.00,,,0.01,Wunderground v.1.15,2013-05-09 14:37:00,
2013-05-09 10:42:00,61.2,57.0,30.01,NE,53,0.0,0.0,86,0.00,,,0.01,Wunderground v.1.15,2013-05-09 14:42:00,
2013-05-09 10:47:00,60.9,56.7,30.02,NE,53,0.0,1.0,86,0.00,,,0.01,Wunderground v.1.15,2013-05-09 14:47:00,
2013-05-09 10:52:00,60.8,56.9,30.02,NE,54,1.0,2.0,87,0.00,,,0.01,Wunderground v.1.15,2013-05-09 14:52:00,
2013-05-09 10:57:00,60.6,56.7,30.03,NE,54,1.0,3.0,87,0.00,,,0.01,Wunderground v.1.15,2013-05-09 14:57:00,
2013-05-09 11:02:00,60.5,56.9,30.02,SE,141,1.0,2.0,88,0.91,,,0.05,Wunderground v.1.15,2013-05-09 15:02:00,
2013-05-09 11:07:00,60.1,56.5,30.02,SE,141,0.0,2.0,88,0.51,,,0.10,Wunderground v.1.15,2013-05-09 15:07:00,
2013-05-09 11:12:00,59.8,56.2,30.02,SE,141,0.0,1.0,88,0.21,,,0.13,Wunderground v.1.15,2013-05-09 15:12:00,
2013-05-09 11:17:00,59.6,56.0,30.02,SE,141,0.0,2.0,88,0.21,,,0.14,Wunderground v.1.15,2013-05-09 15:17:00,
2013-05-09 11:22:00,59.6,56.0,30.02,SE,141,0.0,0.0,88,0.13,,,0.16,Wunderground v.1.15,2013-05-09 15:22:00,
2013-05-09 11:28:00,59.7,56.1,30.02,SE,141,0.0,2.0,88,0.11,,,0.16,Wunderground v.1.15,2013-05-09 15:28:00,
2013-05-09 11:33:00,59.9,56.3,30.02,SE,141,3.0,3.0,88,0.06,,,0.16,Wunderground v.1.15,2013-05-09 15:33:00,
2013-05-09 11:38:00,59.5,55.9,30.02,SE,143,1.0,3.0,88,0.04,,,0.16,Wunderground v.1.15,2013-05-09 15:38:00,
2013-05-09 11:43:00,59.3,56.1,30.02,SE,143,0.0,3.0,89,0.04,,,0.17,Wunderground v.1.15,2013-05-09 15:43:00,
2013-05-09 11:48:00,59.3,55.7,30.02,SE,143,0.0,3.0,88,0.04,,,0.17,Wunderground v.1.15,2013-05-09 15:48:00,
2013-05-09 11:53:00,59.3,56.1,30.02,SE,143,1.0,1.0,89,0.04,,,0.17,Wunderground v.1.15,2013-05-09 15:53:00,
2013-05-09 11:58:00,59.2,55.6,30.02,SE,143,0.0,1.0,88,0.04,,,0.18,Wunderground v.1.15,2013-05-09 15:58:00,
2013-05-09 12:03:00,59.2,56.0,30.01,SE,143,0.0,1.0,89,0.10,,,0.19,Wunderground v.1.15,2013-05-09 16:03:00,
2013-05-09 12:08:00,59.1,55.5,30.01,SE,143,0.0,2.0,88,0.13,,,0.20,Wunderground v.1.15,2013-05-09 16:08:00,
2013-05-09 12:13:00,59.1,55.5,30.00,SE,143,1.0,2.0,88,0.06,,,0.20,Wunderground v.1.15,2013-05-09 16:13:00,
2013-05-09 12:18:00,59.1,55.5,30.00,SE,143,0.0,2.0,88,0.04,,,0.20,Wunderground v.1.15,2013-05-09 16:18:00,
2013-05-09 12:23:00,59.1,55.5,30.01,SE,143,2.0,2.0,88,0.04,,,0.21,Wunderground v.1.15,2013-05-09 16:23:00,
2013-05-09 12:28:00,58.9,55.4,30.00,SE,143,0.0,3.0,88,0.09,,,0.22,Wunderground v.1.15,2013-05-09 16:28:00,
2013-05-09 12:33:00,58.7,55.2,30.00,SE,143,0.0,2.0,88,0.09,,,0.22,Wunderground v.1.15,2013-05-09 16:33:00,
2013-05-09 12:38:00,58.6,55.4,29.99,SE,143,0.0,2.0,89,0.06,,,0.22,Wunderground v.1.15,2013-05-09 16:38:00,
2013-05-09 12:43:00,58.5,55.0,30.00,SE,143,2.0,2.0,88,0.06,,,0.23,Wunderground v.1.15,2013-05-09 16:43:00,
2013-05-09 12:48:00,58.3,54.8,30.00,SE,143,1.0,3.0,88,0.06,,,0.23,Wunderground v.1.15,2013-05-09 16:48:00,
2013-05-09 12:53:00,58.3,54.8,30.00,SE,143,0.0,1.0,88,0.04,,,0.23,Wunderground v.1.15,2013-05-09 16:53:00,
2013-05-09 12:58:00,58.4,54.9,30.00,SE,143,0.0,2.0,88,0.00,,,0.23,Wunderground v.1.15,2013-05-09 16:58:00,
2013-05-09 13:03:00,59.2,55.6,30.00,SE,143,0.0,1.0,88,0.00,,,0.23,Wunderground v.1.15,2013-05-09 17:03:00,
2013-05-09 13:08:00,59.8,56.2,30.00,SE,143,1.0,2.0,88,0.00,,,0.23,Wunderground v.1.15,2013-05-09 17:08:00,
2013-05-09 13:13:00,60.0,56.4,30.00,SE,143,0.0,2.0,88,0.00,,,0.23,Wunderground v.1.15,2013-05-09 17:13:00,
2013-05-09 13:18:00,60.4,56.8,29.99,SE,143,1.0,3.0,88,0.00,,,0.23,Wunderground v.1.15,2013-05-09 17:18:00,
2013-05-09 13:23:00,60.7,57.4,29.99,ESE,115,0.0,3.0,89,0.00,,,0.23,Wunderground v.1.15,2013-05-09 17:23:00,
2013-05-09 13:28:00,61.2,57.6,29.99,South,173,1.0,4.0,88,0.00,,,0.23,Wunderground v.1.15,2013-05-09 17:28:00,
2013-05-09 13:33:00,62.2,58.3,29.98,South,173,0.0,3.0,87,0.00,,,0.23,Wunderground v.1.15,2013-05-09 17:33:00,
2013-05-09 13:38:00,62.5,57.6,29.98,South,173,0.0,3.0,84,0.00,,,0.23,Wunderground v.1.15,2013-05-09 17:38:00,
2013-05-09 13:43:00,63.5,58.6,29.97,NNE,22,0.0,3.0,84,0.00,,,0.23,Wunderground v.1.15,2013-05-09 17:43:00,
2013-05-09 13:48:00,63.8,57.9,29.98,SSE,160,0.0,3.0,81,0.00,,,0.23,Wunderground v.1.15,2013-05-09 17:48:00,
2013-05-09 13:53:00,64.0,58.1,29.98,SSE,148,2.0,2.0,81,0.00,,,0.23,Wunderground v.1.15,2013-05-09 17:53:00,
2013-05-09 13:59:00,64.1,58.1,29.97,SE,142,2.0,5.0,81,0.00,,,0.23,Wunderground v.1.15,2013-05-09 17:59:00,
2013-05-09 14:04:00,64.4,57.4,29.97,SSW,196,2.0,4.0,78,0.00,,,0.23,Wunderground v.1.15,2013-05-09 18:04:00,
2013-05-09 14:09:00,65.0,57.2,29.97,SSW,208,3.0,4.0,76,0.00,,,0.23,Wunderground v.1.15,2013-05-09 18:09:00,
2013-05-09 14:14:00,65.2,57.1,29.97,SSW,208,1.0,3.0,75,0.00,,,0.23,Wunderground v.1.15,2013-05-09 18:14:00,
2013-05-09 14:19:00,65.6,58.6,29.97,SE,130,2.0,3.0,78,0.00,,,0.23,Wunderground v.1.15,2013-05-09 18:19:00,
2013-05-09 14:24:00,65.7,57.6,29.97,East,89,3.0,5.0,75,0.00,,,0.23,Wunderground v.1.15,2013-05-09 18:24:00,
2013-05-09 14:29:00,65.1,57.3,29.96,ESE,103,2.0,5.0,76,0.00,,,0.23,Wunderground v.1.15,2013-05-09 18:29:00,
2013-05-09 14:34:00,65.2,57.4,29.96,SSW,195,1.0,3.0,76,0.00,,,0.23,Wunderground v.1.15,2013-05-09 18:34:00,
2013-05-09 14:39:00,66.6,58.4,29.96,SSW,195,1.0,3.0,75,0.00,,,0.23,Wunderground v.1.15,2013-05-09 18:39:00,
2013-05-09 14:44:00,67.1,58.2,29.96,WSW,250,2.0,4.0,73,0.00,,,0.23,Wunderground v.1.15,2013-05-09 18:44:00,
2013-05-09 14:49:00,67.4,58.4,29.96,WSW,250,1.0,4.0,73,0.00,,,0.23,Wunderground v.1.15,2013-05-09 18:49:00,
2013-05-09 14:54:00,67.1,58.2,29.95,East,94,3.0,5.0,73,0.00,,,0.23,Wunderground v.1.15,2013-05-09 18:54:00,
2013-05-09 14:59:00,66.8,58.2,29.95,ENE,66,2.0,5.0,74,0.00,,,0.23,Wunderground v.1.15,2013-05-09 18:59:00,
2013-05-09 15:04:00,66.5,58.3,29.95,ENE,66,1.0,2.0,75,0.00,,,0.23,Wunderground v.1.15,2013-05-09 19:04:00,
2013-05-09 15:09:00,66.3,58.5,29.94,ENE,66,0.0,2.0,76,0.00,,,0.23,Wunderground v.1.15,2013-05-09 19:09:00,
2013-05-09 15:14:00,66.3,58.5,29.94,South,180,0.0,2.0,76,0.00,,,0.23,Wunderground v.1.15,2013-05-09 19:14:00,
2013-05-09 15:19:00,66.2,59.5,29.94,South,180,0.0,2.0,79,0.00,,,0.23,Wunderground v.1.15,2013-05-09 19:19:00,
2013-05-09 15:24:00,66.1,59.4,29.94,ESE,113,0.0,3.0,79,0.00,,,0.23,Wunderground v.1.15,2013-05-09 19:24:00,
2013-05-09 15:29:00,65.9,58.8,29.94,SSE,168,2.0,5.0,78,0.00,,,0.23,Wunderground v.1.15,2013-05-09 19:29:00,
2013-05-09 15:34:00,65.7,58.7,29.93,SSE,163,1.0,6.0,78,0.00,,,0.23,Wunderground v.1.15,2013-05-09 19:34:00,
2013-05-09 15:39:00,65.3,57.9,29.93,ESE,105,1.0,6.0,77,0.00,,,0.23,Wunderground v.1.15,2013-05-09 19:39:00,
2013-05-09 15:44:00,65.1,58.4,29.93,ESE,117,0.0,3.0,79,0.00,,,0.23,Wunderground v.1.15,2013-05-09 19:44:00,
2013-05-09 15:49:00,65.0,58.3,29.93,SE,138,3.0,3.0,79,0.00,,,0.23,Wunderground v.1.15,2013-05-09 19:49:00,
2013-05-09 15:54:00,64.8,57.8,29.93,South,171,1.0,4.0,78,0.00,,,0.23,Wunderground v.1.15,2013-05-09 19:54:00,
2013-05-09 15:59:00,64.8,57.8,29.93,SE,142,2.0,4.0,78,0.00,,,0.23,Wunderground v.1.15,2013-05-09 19:59:00,
2013-05-09 16:04:00,64.7,57.7,29.93,SE,138,0.0,2.0,78,0.00,,,0.23,Wunderground v.1.15,2013-05-09 20:04:00,
2013-05-09 16:09:00,64.9,58.2,29.93,SE,138,0.0,2.0,79,0.00,,,0.23,Wunderground v.1.15,2013-05-09 20:09:00,
2013-05-09 16:14:00,65.0,58.7,29.93,SSE,164,0.0,3.0,80,0.00,,,0.23,Wunderground v.1.15,2013-05-09 20:14:00,
2013-05-09 16:19:00,64.7,58.0,29.93,SSE,164,2.0,4.0,79,0.00,,,0.23,Wunderground v.1.15,2013-05-09 20:19:00,
2013-05-09 16:24:00,64.5,58.5,29.93,SSE,163,2.0,4.0,81,0.00,,,0.23,Wunderground v.1.15,2013-05-09 20:24:00,
2013-05-09 16:29:00,64.4,58.4,29.93,SSE,163,3.0,4.0,81,0.00,,,0.23,Wunderground v.1.15,2013-05-09 20:29:00,
2013-05-09 16:35:00,64.2,58.2,29.93,SSE,155,0.0,2.0,81,0.00,,,0.24,Wunderground v.1.15,2013-05-09 20:35:00,
2013-05-09 16:40:00,64.1,58.1,29.93,SSE,155,0.0,2.0,81,0.00,,,0.24,Wunderground v.1.15,2013-05-09 20:40:00,
2013-05-09 16:45:00,63.8,58.2,29.93,SSE,155,1.0,2.0,82,0.00,,,0.24,Wunderground v.1.15,2013-05-09 20:45:00,
2013-05-09 16:50:00,63.3,58.0,29.93,SSE,150,0.0,3.0,83,0.00,,,0.24,Wunderground v.1.15,2013-05-09 20:50:00,
2013-05-09 16:55:00,63.0,58.1,29.93,SSE,148,0.0,2.0,84,0.00,,,0.25,Wunderground v.1.15,2013-05-09 20:55:00,
2013-05-09 17:00:00,62.8,58.2,29.93,SSE,148,0.0,2.0,85,0.00,,,0.25,Wunderground v.1.15,2013-05-09 21:00:00,
2013-05-09 17:05:00,62.6,58.4,29.93,SSE,148,0.0,1.0,86,0.00,,,0.25,Wunderground v.1.15,2013-05-09 21:05:00,
2013-05-09 17:10:00,62.5,58.3,29.93,SSE,148,0.0,1.0,86,0.04,,,0.26,Wunderground v.1.15,2013-05-09 21:10:00,
2013-05-09 17:15:00,62.4,58.2,29.93,SSE,148,0.0,0.0,86,0.04,,,0.26,Wunderground v.1.15,2013-05-09 21:15:00,
2013-05-09 17:20:00,62.5,58.6,29.93,SSE,148,0.0,0.0,87,0.04,,,0.26,Wunderground v.1.15,2013-05-09 21:20:00,
2013-05-09 17:25:00,62.5,58.6,29.92,SSE,148,0.0,0.0,87,0.00,,,0.26,Wunderground v.1.15,2013-05-09 21:25:00,
2013-05-09 17:30:00,62.5,58.6,29.92,SSE,148,0.0,0.0,87,0.00,,,0.26,Wunderground v.1.15,2013-05-09 21:30:00,
2013-05-09 17:35:00,62.6,58.7,29.92,SSE,148,0.0,1.0,87,0.00,,,0.26,Wunderground v.1.15,2013-05-09 21:35:00,
2013-05-09 17:40:00,62.5,57.9,29.92,SSE,148,0.0,1.0,85,0.00,,,0.26,Wunderground v.1.15,2013-05-09 21:40:00,
2013-05-09 17:45:00,62.7,58.1,29.92,SSE,148,0.0,1.0,85,0.00,,,0.26,Wunderground v.1.15,2013-05-09 21:45:00,
2013-05-09 17:50:00,62.9,58.3,29.92,SSE,148,0.0,0.0,85,0.00,,,0.26,Wunderground v.1.15,2013-05-09 21:50:00,
2013-05-09 17:55:00,63.2,58.9,29.92,SSE,148,2.0,2.0,86,0.00,,,0.26,Wunderground v.1.15,2013-05-09 21:55:00,
2013-05-09 18:00:00,63.0,58.7,29.92,SE,131,0.0,1.0,86,0.00,,,0.26,Wunderground v.1.15,2013-05-09 22:00:00,
2013-05-09 18:05:00,62.8,58.5,29.92,SE,130,0.0,3.0,86,0.00,,,0.26,Wunderground v.1.15,2013-05-09 22:05:00,
2013-05-09 18:10:00,62.7,58.5,29.92,East,81,0.0,1.0,86,0.00,,,0.26,Wunderground v.1.15,2013-05-09 22:10:00,
2013-05-09 18:15:00,62.7,58.8,29.92,NW,313,0.0,2.0,87,0.00,,,0.26,Wunderground v.1.15,2013-05-09 22:15:00,
2013-05-09 18:20:00,62.5,58.6,29.92,East,79,0.0,1.0,87,0.00,,,0.26,Wunderground v.1.15,2013-05-09 22:20:00,
2013-05-09 18:25:00,62.3,58.4,29.91,NW,318,1.0,4.0,87,0.30,,,0.29,Wunderground v.1.15,2013-05-09 22:25:00,
2013-05-09 18:30:00,62.2,58.6,29.91,NW,318,0.0,1.0,88,0.21,,,0.30,Wunderground v.1.15,2013-05-09 22:30:00,
2013-05-09 18:36:00,61.5,57.6,29.91,NE,45,0.0,9.0,87,0.08,,,0.31,Wunderground v.1.15,2013-05-09 22:36:00,
2013-05-09 18:41:00,60.6,56.7,29.91,NNE,28,5.0,7.0,87,0.14,,,0.32,Wunderground v.1.15,2013-05-09 22:41:00,
2013-05-09 18:46:00,60.0,56.4,29.92,NE,55,1.0,7.0,88,0.13,,,0.33,Wunderground v.1.15,2013-05-09 22:46:00,
2013-05-09 18:51:00,59.8,56.2,29.92,ENE,57,0.0,2.0,88,0.06,,,0.33,Wunderground v.1.15,2013-05-09 22:51:00,
2013-05-09 18:56:00,59.5,55.9,29.92,NNW,332,0.0,3.0,88,0.04,,,0.33,Wunderground v.1.15,2013-05-09 22:56:00,
2013-05-09 19:01:00,59.4,55.8,29.92,NNW,332,0.0,1.0,88,0.00,,,0.33,Wunderground v.1.15,2013-05-09 23:01:00,
2013-05-09 19:06:00,59.2,55.6,29.92,ENE,69,0.0,5.0,88,0.00,,,0.33,Wunderground v.1.15,2013-05-09 23:06:00,
2013-05-09 19:11:00,59.0,55.4,29.92,NNW,343,1.0,3.0,88,0.00,,,0.33,Wunderground v.1.15,2013-05-09 23:11:00,
2013-05-09 19:16:00,58.8,55.3,29.92,ENE,73,0.0,6.0,88,0.00,,,0.33,Wunderground v.1.15,2013-05-09 23:16:00,
2013-05-09 19:21:00,58.7,55.2,29.92,ENE,72,5.0,5.0,88,0.00,,,0.33,Wunderground v.1.15,2013-05-09 23:21:00,
2013-05-09 19:26:00,58.5,55.0,29.92,NE,55,0.0,5.0,88,0.00,,,0.33,Wunderground v.1.15,2013-05-09 23:26:00,
2013-05-09 19:31:00,58.4,54.9,29.93,NE,56,0.0,1.0,88,0.00,,,0.33,Wunderground v.1.15,2013-05-09 23:31:00,
2013-05-09 19:36:00,58.2,54.7,29.93,ENE,63,1.0,4.0,88,0.00,,,0.33,Wunderground v.1.15,2013-05-09 23:36:00,
2013-05-09 19:42:00,58.1,54.6,29.93,ENE,63,0.0,1.0,88,0.00,,,0.33,Wunderground v.1.15,2013-05-09 23:42:00,
2013-05-09 19:47:00,58.0,54.5,29.93,NNE,26,1.0,4.0,88,0.00,,,0.33,Wunderground v.1.15,2013-05-09 23:47:00,
2013-05-09 19:52:00,58.0,54.5,29.93,North,360,0.0,1.0,88,0.00,,,0.33,Wunderground v.1.15,2013-05-09 23:52:00,
2013-05-09 19:57:00,58.1,54.6,29.93,ENE,68,2.0,3.0,88,0.00,,,0.33,Wunderground v.1.15,2013-05-09 23:57:00,
2013-05-09 20:02:00,57.9,54.4,29.93,East,82,3.0,3.0,88,0.00,,,0.33,Wunderground v.1.15,2013-05-10 00:02:00,
2013-05-09 20:07:00,57.7,54.2,29.93,East,86,0.0,4.0,88,0.00,,,0.33,Wunderground v.1.15,2013-05-10 00:07:00,
2013-05-09 20:12:00,57.7,54.2,29.93,ENE,60,2.0,3.0,88,0.00,,,0.33,Wunderground v.1.15,2013-05-10 00:12:00,
2013-05-09 20:17:00,57.5,54.0,29.92,NE,53,6.0,7.0,88,0.00,,,0.33,Wunderground v.1.15,2013-05-10 00:17:00,
2013-05-09 20:22:00,57.4,53.9,29.92,ENE,72,1.0,2.0,88,0.00,,,0.33,Wunderground v.1.15,2013-05-10 00:22:00,
2013-05-09 20:27:00,57.4,53.9,29.93,NE,53,0.0,3.0,88,0.00,,,0.33,Wunderground v.1.15,2013-05-10 00:27:00,
2013-05-09 20:32:00,57.3,53.8,29.93,ENE,67,2.0,4.0,88,0.00,,,0.33,Wunderground v.1.15,2013-05-10 00:32:00,
2013-05-09 20:37:00,57.4,53.9,29.93,ENE,67,0.0,4.0,88,0.00,,,0.33,Wunderground v.1.15,2013-05-10 00:37:00,
2013-05-09 20:42:00,57.3,53.8,29.93,ENE,67,1.0,3.0,88,0.00,,,0.33,Wunderground v.1.15,2013-05-10 00:42:00,
2013-05-09 20:47:00,57.2,53.7,29.94,East,81,1.0,3.0,88,0.00,,,0.33,Wunderground v.1.15,2013-05-10 00:47:00,
2013-05-09 20:52:00,57.1,53.6,29.94,East,81,0.0,1.0,88,0.00,,,0.33,Wunderground v.1.15,2013-05-10 00:52:00,
2013-05-09 20:57:00,57.1,53.6,29.94,East,83,0.0,3.0,88,0.00,,,0.33,Wunderground v.1.15,2013-05-10 00:57:00,
2013-05-09 21:02:00,57.0,53.5,29.94,East,83,0.0,1.0,88,0.00,,,0.33,Wunderground v.1.15,2013-05-10 01:02:00,
2013-05-09 21:07:00,56.9,53.4,29.95,East,83,0.0,2.0,88,0.00,,,0.33,Wunderground v.1.15,2013-05-10 01:07:00,
2013-05-09 21:12:00,56.8,53.3,29.95,East,83,0.0,1.0,88,0.00,,,0.33,Wunderground v.1.15,2013-05-10 01:12:00,
2013-05-09 21:17:00,56.8,53.3,29.95,East,88,2.0,5.0,88,0.00,,,0.33,Wunderground v.1.15,2013-05-10 01:17:00,
2013-05-09 21:22:00,56.8,53.3,29.95,East,88,1.0,1.0,88,0.00,,,0.33,Wunderground v.1.15,2013-05-10 01:22:00,
2013-05-09 21:27:00,56.8,53.3,29.95,East,82,0.0,2.0,88,0.00,,,0.33,Wunderground v.1.15,2013-05-10 01:27:00,
2013-05-09 21:32:00,56.8,53.3,29.95,East,82,0.0,0.0,88,0.00,,,0.33,Wunderground v.1.15,2013-05-10 01:32:00,
2013-05-09 21:37:00,56.8,53.3,29.95,East,97,1.0,3.0,88,0.00,,,0.33,Wunderground v.1.15,2013-05-10 01:37:00,
2013-05-09 21:42:00,56.8,53.3,29.95,East,97,0.0,1.0,88,0.00,,,0.33,Wunderground v.1.15,2013-05-10 01:42:00,
2013-05-09 21:47:00,56.8,53.3,29.95,East,97,0.0,1.0,88,0.00,,,0.33,Wunderground v.1.15,2013-05-10 01:47:00,
2013-05-09 21:52:00,56.8,53.3,29.95,East,97,0.0,1.0,88,0.00,,,0.33,Wunderground v.1.15,2013-05-10 01:52:00,
2013-05-09 21:57:00,56.8,53.3,29.95,East,97,1.0,1.0,88,0.00,,,0.33,Wunderground v.1.15,2013-05-10 01:57:00,
2013-05-09 22:02:00,56.7,53.2,29.95,East,97,0.0,1.0,88,0.00,,,0.33,Wunderground v.1.15,2013-05-10 02:02:00,
2013-05-09 22:08:00,56.7,53.2,29.95,East,97,0.0,1.0,88,0.00,,,0.33,Wunderground v.1.15,2013-05-10 02:08:00,
2013-05-09 22:13:00,56.7,53.2,29.95,East,97,0.0,1.0,88,0.00,,,0.33,Wunderground v.1.15,2013-05-10 02:13:00,
2013-05-09 22:18:00,56.6,53.1,29.95,East,97,0.0,2.0,88,0.00,,,0.33,Wunderground v.1.15,2013-05-10 02:18:00,
2013-05-09 22:23:00,56.6,53.1,29.95,East,97,0.0,1.0,88,0.00,,,0.33,Wunderground v.1.15,2013-05-10 02:23:00,
2013-05-09 22:28:00,56.6,53.1,29.95,East,97,0.0,1.0,88,0.00,,,0.33,Wunderground v.1.15,2013-05-10 02:28:00,
2013-05-09 22:33:00,56.6,53.1,29.95,East,97,0.0,1.0,88,0.00,,,0.33,Wunderground v.1.15,2013-05-10 02:33:00,
2013-05-09 22:38:00,56.5,53.0,29.95,NNE,32,2.0,3.0,88,0.00,,,0.33,Wunderground v.1.15,2013-05-10 02:38:00,
2013-05-09 22:43:00,56.4,52.9,29.94,NNE,32,0.0,2.0,88,0.00,,,0.33,Wunderground v.1.15,2013-05-10 02:43:00,
2013-05-09 22:48:00,56.4,52.9,29.94,NNE,32,1.0,2.0,88,0.00,,,0.33,Wunderground v.1.15,2013-05-10 02:48:00,
2013-05-09 22:53:00,56.5,53.0,29.94,NW,308,3.0,3.0,88,0.00,,,0.33,Wunderground v.1.15,2013-05-10 02:53:00,
2013-05-09 22:58:00,56.4,52.9,29.94,NW,309,1.0,3.0,88,0.00,,,0.33,Wunderground v.1.15,2013-05-10 02:58:00,
2013-05-09 23:03:00,56.4,52.9,29.94,NW,309,1.0,2.0,88,0.00,,,0.33,Wunderground v.1.15,2013-05-10 03:03:00,
2013-05-09 23:08:00,56.3,52.8,29.95,NW,310,3.0,3.0,88,0.00,,,0.33,Wunderground v.1.15,2013-05-10 03:08:00,
2013-05-09 23:13:00,56.3,52.8,29.94,NW,322,1.0,6.0,88,0.00,,,0.33,Wunderground v.1.15,2013-05-10 03:13:00,
2013-05-09 23:18:00,56.3,52.8,29.94,WNW,302,4.0,6.0,88,0.00,,,0.33,Wunderground v.1.15,2013-05-10 03:18:00,
2013-05-09 23:23:00,56.2,52.7,29.94,NNW,330,0.0,3.0,88,0.00,,,0.33,Wunderground v.1.15,2013-05-10 03:23:00,
2013-05-09 23:28:00,56.3,52.8,29.94,NNW,330,1.0,3.0,88,0.00,,,0.33,Wunderground v.1.15,2013-05-10 03:28:00,
2013-05-09 23:33:00,56.4,52.9,29.94,NW,306,1.0,2.0,88,0.00,,,0.33,Wunderground v.1.15,2013-05-10 03:33:00,
2013-05-09 23:38:00,56.3,52.8,29.94,NW,306,0.0,2.0,88,0.00,,,0.33,Wunderground v.1.15,2013-05-10 03:38:00,
2013-05-09 23:40:00,56.5,53.0,29.94,WNW,301,1.0,1.0,88,0.00,,,0.33,Wunderground v.1.15,2013-05-10 03:40:00,
2013-05-09 23:41:00,56.5,53.0,29.94,WNW,292,2.0,5.0,88,0.00,,,0.00,Wunderground v.1.15,2013-05-10 03:41:00,
2013-05-09 23:42:00,56.5,53.0,29.94,WNW,292,1.0,5.0,88,0.00,,,0.00,Wunderground v.1.15,2013-05-10 03:42:00,
2013-05-09 23:43:00,56.4,52.9,29.94,NW,306,1.0,3.0,88,0.00,,,0.33,Wunderground v.1.15,2013-05-10 03:43:00,
2013-05-09 23:44:00,56.5,53.0,29.94,WNW,292,0.0,5.0,88,0.00,,,0.00,Wunderground v.1.15,2013-05-10 03:44:00,
2013-05-09 23:45:00,56.5,53.0,29.94,WNW,292,0.0,5.0,88,0.00,,,0.00,Wunderground v.1.15,2013-05-10 03:45:00,
2013-05-09 23:46:00,56.5,53.0,29.94,WNW,292,2.0,5.0,88,0.00,,,0.00,Wunderground v.1.15,2013-05-10 03:46:00,
2013-05-09 23:47:00,56.5,53.0,29.94,WNW,292,1.0,5.0,88,0.00,,,0.00,Wunderground v.1.15,2013-05-10 03:47:00,
2013-05-09 23:48:00,56.4,52.9,29.94,WNW,301,0.0,4.0,88,0.00,,,0.33,Wunderground v.1.15,2013-05-10 03:48:00,
2013-05-09 23:53:00,56.4,52.9,29.94,WNW,301,0.0,1.0,88,0.00,,,0.33,Wunderground v.1.15,2013-05-10 03:53:00,
2013-05-09 23:58:00,56.5,53.0,29.94,WNW,301,0.0,2.0,88,0.00,,,0.33,Wunderground v.1.15,2013-05-10 03:58:00,